Time;durP1;ratioP1;P1;durP2;ratioP2;P2;SDS_P1;SDS_P2;PMS_P1;PMS_P2;Temp;Humidity;BMP_temperature;BMP_pressure;BME280_temperature;BME280_humidity;BME280_pressure;Samples;Min_cycle;Max_cycle;Signal;HPM_P1;HPM_P2
2023/05/20 00:01:09;;;;;;;10.70;8.80;;;;;;;13.51;85.66;101584.93;102391;279;114097;-54
2023/05/20 00:03:46;;;;;;;11.00;7.90;;;;;;;13.53;85.55;101583.44;102429;279;95766;-56
2023/05/20 00:06:31;;;;;;;12.60;7.90;;;;;;;13.52;85.77;101585.50;102407;279;98258;-56
2023/05/20 00:09:11;;;;;;;13.00;7.50;;;;;;;13.52;85.66;101580.25;102477;279;121006;-53
2023/05/20 00:11:57;;;;;;;12.10;8.20;;;;;;;13.55;85.42;101582.16;102503;279;105786;-55
2023/05/20 00:14:40;;;;;;;13.40;8.20;;;;;;;13.50;85.69;101579.44;102460;279;115200;-55
2023/05/20 00:17:22;;;;;;;11.80;9.30;;;;;;;13.49;85.63;101574.83;102472;279;95951;-56
2023/05/20 00:20:04;;;;;;;11.80;8.10;;;;;;;13.46;85.42;101575.02;102467;279;96967;-57
2023/05/20 00:22:52;;;;;;;10.90;8.10;;;;;;;13.45;85.50;101569.69;102529;279;120485;-57
2023/05/20 00:25:35;;;;;;;10.50;7.40;;;;;;;13.44;85.49;101568.39;102459;279;105936;-56
2023/05/20 00:28:25;;;;;;;12.20;7.10;;;;;;;13.45;85.51;101567.89;102458;279;114758;-56
2023/05/20 00:31:06;;;;;;;11.50;7.40;;;;;;;13.47;85.50;101571.52;102491;279;96781;-56
2023/05/20 00:33:45;;;;;;;9.00;7.20;;;;;;;13.44;85.57;101569.98;102476;279;96545;-53
2023/05/20 00:36:26;;;;;;;12.00;7.00;;;;;;;13.43;85.48;101569.83;102447;279;119353;-54
2023/05/20 00:39:06;;;;;;;9.70;6.60;;;;;;;13.42;85.44;101567.55;102459;268;104405;-53
2023/05/20 00:41:49;;;;;;;8.00;6.50;;;;;;;13.41;85.49;101567.63;102386;279;113522;-53
2023/05/20 00:44:30;;;;;;;8.70;6.10;;;;;;;13.40;85.40;101562.92;102406;279;93383;-52
2023/05/20 00:47:09;;;;;;;9.30;6.00;;;;;;;13.38;85.36;101565.67;102458;279;98383;-57
2023/05/20 00:49:51;;;;;;;11.40;6.30;;;;;;;13.36;85.02;101564.06;102402;279;120129;-56
2023/05/20 00:52:36;;;;;;;7.80;5.90;;;;;;;13.35;84.99;101562.10;102420;279;105127;-53
2023/05/20 00:55:14;;;;;;;9.00;5.70;;;;;;;13.32;84.99;101563.55;102429;279;114775;-53
2023/05/20 00:57:54;;;;;;;9.40;6.00;;;;;;;13.29;85.01;101565.63;102479;279;95424;-53
2023/05/20 01:00:40;;;;;;;6.70;5.50;;;;;;;13.24;84.89;101570.37;102455;279;98158;-53
2023/05/20 01:03:17;;;;;;;7.50;5.80;;;;;;;13.26;84.83;101572.91;102498;279;120825;-56
2023/05/20 01:05:52;;;;;;;7.50;5.30;;;;;;;13.26;84.75;101567.88;102318;279;106035;-57
2023/05/20 01:08:27;;;;;;;8.50;5.30;;;;;;;13.27;84.80;101569.91;102512;279;113099;-54
2023/05/20 01:11:17;;;;;;;6.60;4.80;;;;;;;13.27;84.41;101569.30;102358;279;97989;-52
2023/05/20 01:14:01;;;;;;;8.20;5.50;;;;;;;13.24;84.51;101568.40;102525;279;96931;-52
2023/05/20 01:16:42;;;;;;;10.00;5.10;;;;;;;13.25;84.45;101565.23;102501;279;120205;-56
2023/05/20 01:19:28;;;;;;;11.10;5.60;;;;;;;13.24;84.29;101566.91;102467;279;105928;-57
2023/05/20 01:22:11;;;;;;;7.40;5.00;;;;;;;13.23;84.23;101567.70;102448;279;114392;-57
2023/05/20 01:24:52;;;;;;;10.20;4.60;;;;;;;13.21;84.17;101568.95;102471;279;95951;-56
2023/05/20 01:27:34;;;;;;;7.40;4.50;;;;;;;13.20;84.03;101567.57;102450;279;97239;-53
2023/05/20 01:30:15;;;;;;;7.10;4.70;;;;;;;13.16;83.89;101573.04;102454;279;119949;-53
2023/05/20 01:33:01;;;;;;;5.60;4.80;;;;;;;13.14;83.95;101572.29;102475;279;105111;-56
2023/05/20 01:35:36;;;;;;;8.10;4.60;;;;;;;13.13;83.82;101571.48;102463;279;113965;-56
2023/05/20 01:38:19;;;;;;;5.40;4.20;;;;;;;13.11;83.91;101564.40;102444;279;94669;-57
2023/05/20 01:41:00;;;;;;;7.00;4.90;;;;;;;13.04;83.90;101560.77;102236;279;97166;-54
2023/05/20 01:43:44;;;;;;;6.90;4.70;;;;;;;13.02;83.78;101557.26;102430;279;121666;-54
2023/05/20 01:46:25;;;;;;;7.30;3.60;;;;;;;12.98;83.84;101557.69;102436;279;105903;-53
2023/05/20 01:49:09;;;;;;;6.00;4.00;;;;;;;12.95;83.64;101558.17;102471;291;113206;-53
2023/05/20 01:51:53;;;;;;;6.60;4.40;;;;;;;12.93;83.45;101559.70;102500;279;96688;-53
2023/05/20 01:54:39;;;;;;;7.40;3.60;;;;;;;12.88;83.45;101555.42;102522;279;96200;-53
2023/05/20 01:57:20;;;;;;;5.20;3.40;;;;;;;12.89;83.24;101553.83;102465;279;121541;-53
2023/05/20 02:00:05;;;;;;;7.30;3.70;;;;;;;12.90;83.27;101549.42;102400;279;105790;-52
2023/05/20 02:02:52;;;;;;;9.10;3.60;;;;;;;12.87;83.01;101549.73;102380;279;113820;-56
2023/05/20 02:05:27;;;;;;;8.40;3.90;;;;;;;12.86;82.94;101547.91;102373;280;96325;-55
2023/05/20 02:08:08;;;;;;;7.40;3.70;;;;;;;12.82;82.78;101543.79;102399;280;95447;-55
2023/05/20 02:10:50;;;;;;;6.60;3.40;;;;;;;12.79;82.88;101542.92;102318;280;121333;-56
2023/05/20 02:13:29;;;;;;;6.10;3.60;;;;;;;12.76;82.88;101545.20;102374;280;105082;-53
2023/05/20 02:16:07;;;;;;;8.10;3.80;;;;;;;12.78;82.93;101546.48;102375;279;112943;-53
2023/05/20 02:18:46;;;;;;;6.50;4.10;;;;;;;12.81;82.67;101549.42;102366;280;93085;-53
2023/05/20 02:21:27;;;;;;;6.00;3.60;;;;;;;12.81;82.72;101548.45;102392;280;96087;-53
2023/05/20 02:24:13;;;;;;;11.10;4.00;;;;;;;12.76;82.65;101554.52;102341;280;119877;-53
2023/05/20 02:26:53;;;;;;;6.90;3.70;;;;;;;12.73;82.51;101558.20;102366;280;105084;-56
2023/05/20 02:29:32;;;;;;;5.90;3.50;;;;;;;12.72;82.57;101556.02;102350;280;114255;-55
2023/05/20 02:32:11;;;;;;;8.30;3.70;;;;;;;12.70;82.38;101556.75;102372;280;95889;-56
2023/05/20 02:34:51;;;;;;;6.30;3.70;;;;;;;12.68;82.61;101555.38;102400;279;96709;-56
2023/05/20 02:37:28;;;;;;;5.60;3.50;;;;;;;12.67;82.38;101555.37;102374;280;120477;-57
2023/05/20 02:40:09;;;;;;;6.30;4.00;;;;;;;12.70;82.56;101564.38;102486;280;105765;-56
2023/05/20 02:42:50;;;;;;;7.60;3.80;;;;;;;12.74;82.50;101562.33;102467;280;113602;-52
2023/05/20 02:45:32;;;;;;;7.60;3.60;;;;;;;12.74;82.25;101563.38;102434;279;94709;-53
2023/05/20 02:48:08;;;;;;;6.90;4.00;;;;;;;12.71;82.43;101563.02;102421;279;95952;-53
2023/05/20 02:50:51;;;;;;;5.80;3.80;;;;;;;12.68;82.57;101568.39;102429;280;120981;-53
2023/05/20 02:53:36;;;;;;;5.30;3.50;;;;;;;12.70;82.44;101569.84;102370;279;105489;-52
2023/05/20 02:56:20;;;;;;;5.20;3.40;;;;;;;12.68;82.58;101568.23;102366;279;114490;-51
2023/05/20 02:59:03;;;;;;;6.80;3.30;;;;;;;12.72;82.33;101569.59;102318;279;94568;-56
2023/05/20 03:01:48;;;;;;;5.80;3.20;;;;;;;12.74;82.52;101565.73;102413;280;97486;-55
2023/05/20 03:04:31;;;;;;;5.50;3.70;;;;;;;12.73;82.51;101568.06;102366;280;120735;-55
2023/05/20 03:07:15;;;;;;;5.80;3.70;;;;;;;12.74;82.67;101566.27;102368;268;106175;-53
2023/05/20 03:10:01;;;;;;;7.40;3.90;;;;;;;12.76;82.38;101565.65;102311;280;114006;-52
2023/05/20 03:12:40;;;;;;;6.60;3.60;;;;;;;12.75;82.51;101559.61;102378;280;96685;-56
2023/05/20 03:15:17;;;;;;;6.00;3.70;;;;;;;12.75;82.44;101561.11;102346;279;98228;-55
2023/05/20 03:17:59;;;;;;;4.70;4.00;;;;;;;12.73;82.41;101561.38;102371;279;120719;-55
2023/05/20 03:20:37;;;;;;;6.90;3.60;;;;;;;12.72;82.31;101562.75;102369;279;106257;-56
2023/05/20 03:23:16;;;;;;;7.00;3.70;;;;;;;12.76;82.32;101563.85;102381;280;114213;-57
2023/05/20 03:25:57;;;;;;;6.80;3.70;;;;;;;12.78;82.30;101561.80;102388;280;94526;-56
2023/05/20 03:28:36;;;;;;;5.70;3.80;;;;;;;12.83;82.19;101560.88;102431;280;97768;-53
2023/05/20 03:31:22;;;;;;;5.60;3.50;;;;;;;12.87;82.36;101559.54;102409;280;120845;-53
2023/05/20 03:34:04;;;;;;;6.50;3.60;;;;;;;12.86;82.11;101565.30;102393;279;104505;-56
2023/05/20 03:36:49;;;;;;;4.90;3.60;;;;;;;12.87;82.13;101566.70;102392;280;115189;-53
2023/05/20 03:39:29;;;;;;;6.80;3.50;;;;;;;12.89;82.37;101565.42;102341;280;95629;-54
2023/05/20 03:42:07;;;;;;;6.60;4.10;;;;;;;12.94;82.36;101569.38;102357;280;97725;-56
2023/05/20 03:44:50;;;;;;;6.50;3.80;;;;;;;12.98;82.16;101573.45;102204;280;119106;-56
2023/05/20 03:47:38;;;;;;;6.40;3.80;;;;;;;13.05;81.97;101571.70;102324;280;104348;-56
2023/05/20 03:50:25;;;;;;;6.90;4.00;;;;;;;13.09;81.77;101567.33;102358;280;113783;-56
2023/05/20 03:53:11;;;;;;;10.60;4.80;;;;;;;13.10;81.88;101561.52;102399;280;94299;-53
2023/05/20 03:55:55;;;;;;;8.70;4.30;;;;;;;13.14;81.87;101563.48;102333;280;97432;-53
2023/05/20 03:58:38;;;;;;;5.60;3.70;;;;;;;13.18;81.81;101563.49;102320;280;120829;-53
2023/05/20 04:01:20;;;;;;;7.70;3.50;;;;;;;13.22;81.59;101564.52;102282;280;104073;-53
2023/05/20 04:03:55;;;;;;;9.00;3.40;;;;;;;13.31;81.64;101563.79;102350;280;114346;-52
2023/05/20 04:06:34;;;;;;;5.60;3.30;;;;;;;13.38;81.71;101563.09;102392;279;95458;-55
2023/05/20 04:09:21;;;;;;;7.10;3.50;;;;;;;13.46;81.45;101563.49;102418;280;97024;-57
2023/05/20 04:12:00;;;;;;;5.00;3.80;;;;;;;13.55;81.37;101564.16;102409;280;121628;-53
2023/05/20 04:14:48;;;;;;;6.10;4.40;;;;;;;13.62;81.22;101561.41;102428;279;105386;-53
2023/05/20 04:17:39;;;;;;;5.10;3.50;;;;;;;13.70;81.34;101563.93;102418;280;114193;-52
2023/05/20 04:20:16;;;;;;;6.30;4.00;;;;;;;13.77;81.11;101568.86;102455;280;95991;-53
2023/05/20 04:22:54;;;;;;;7.70;3.90;;;;;;;13.76;80.97;101570.54;102459;279;97796;-51
2023/05/20 04:25:40;;;;;;;6.00;3.50;;;;;;;13.82;80.90;101575.36;102403;279;121765;-54
2023/05/20 04:28:22;;;;;;;5.70;3.90;;;;;;;13.89;80.72;101575.94;102412;279;106276;-56
2023/05/20 04:31:15;;;;;;;6.60;4.20;;;;;;;13.88;80.66;101578.69;102431;279;114152;-56
2023/05/20 04:33:59;;;;;;;6.10;3.80;;;;;;;13.97;80.57;101576.58;102397;279;92429;-52
2023/05/20 04:36:38;;;;;;;4.70;3.50;;;;;;;14.05;80.35;101577.23;102423;279;96945;-54
2023/05/20 04:39:22;;;;;;;7.40;3.70;;;;;;;14.11;80.09;101580.34;102346;279;120563;-51
2023/05/20 04:42:03;;;;;;;6.40;4.20;;;;;;;14.15;79.98;101576.66;102395;279;103697;-56
2023/05/20 04:44:39;;;;;;;7.60;3.50;;;;;;;14.22;79.96;101572.62;102390;279;115466;-55
2023/05/20 04:47:17;;;;;;;8.60;5.30;;;;;;;14.28;79.92;101567.50;102247;279;97229;-53
2023/05/20 04:50:00;;;;;;;6.00;4.60;;;;;;;14.41;79.64;101566.52;102405;279;97361;-53
2023/05/20 04:52:45;;;;;;;9.10;5.70;;;;;;;14.49;79.50;101565.71;102383;279;122046;-54
2023/05/20 04:55:33;;;;;;;7.50;5.70;;;;;;;14.54;79.48;101565.45;102400;279;105521;-53
2023/05/20 04:58:16;;;;;;;10.90;6.30;;;;;;;14.71;79.62;101562.27;102393;279;114435;-54
2023/05/20 05:00:57;;;;;;;8.80;5.20;;;;;;;14.85;79.62;101561.71;102401;279;95548;-56
2023/05/20 05:03:37;;;;;;;9.50;5.80;;;;;;;14.93;79.60;101563.51;102463;279;97819;-53
2023/05/20 05:06:21;;;;;;;15.80;5.90;;;;;;;15.04;79.50;101566.20;102389;279;120118;-56
2023/05/20 05:09:04;;;;;;;8.10;4.60;;;;;;;15.18;79.42;101568.96;102504;280;105981;-53
2023/05/20 05:11:46;;;;;;;9.90;5.00;;;;;;;15.33;79.41;101566.71;102473;279;113430;-57
2023/05/20 05:14:25;;;;;;;10.60;5.30;;;;;;;15.59;79.19;101574.33;102405;279;94210;-56
2023/05/20 05:17:09;;;;;;;9.50;4.60;;;;;;;15.92;78.89;101576.35;102475;279;97519;-56
2023/05/20 05:19:51;;;;;;;6.20;4.50;;;;;;;16.33;78.37;101571.43;102377;279;121101;-56
2023/05/20 05:22:29;;;;;;;9.00;5.30;;;;;;;16.69;77.92;101569.04;102441;279;104876;-56
2023/05/20 05:25:08;;;;;;;11.30;5.10;;;;;;;16.86;77.13;101570.10;102396;279;114831;-56
2023/05/20 05:27:56;;;;;;;8.80;4.50;;;;;;;16.83;76.79;101571.39;102422;279;94523;-56
2023/05/20 05:30:36;;;;;;;8.10;4.50;;;;;;;16.87;76.16;101568.67;102418;279;96604;-57
2023/05/20 05:33:16;;;;;;;6.60;4.60;;;;;;;17.01;75.89;101561.52;102415;279;119259;-54
2023/05/20 05:35:53;;;;;;;5.70;4.10;;;;;;;17.31;75.56;101563.37;102421;279;104769;-54
2023/05/20 05:38:43;;;;;;;10.00;4.10;;;;;;;17.56;75.04;101562.17;102390;279;115089;-56
2023/05/20 05:41:28;;;;;;;7.40;3.80;;;;;;;17.89;74.72;101563.79;102349;279;93947;-56
2023/05/20 05:44:09;;;;;;;5.90;4.00;;;;;;;18.23;73.94;101566.58;102409;279;98680;-53
2023/05/20 05:46:48;;;;;;;5.00;3.90;;;;;;;18.45;73.50;101572.64;102425;279;120172;-56
2023/05/20 05:49:43;;;;;;;7.00;3.80;;;;;;;18.62;72.84;101572.13;101935;279;520834;-55
2023/05/20 05:52:23;;;;;;;8.50;4.30;;;;;;;18.76;72.30;101570.78;102378;279;113257;-53
2023/05/20 05:55:01;;;;;;;8.20;4.40;;;;;;;19.39;72.47;101569.98;102178;280;94114;-53
2023/05/20 05:57:45;;;;;;;7.70;4.50;;;;;;;20.98;71.28;101570.70;102436;279;98027;-54
2023/05/20 06:00:20;;;;;;;5.90;3.60;;;;;;;21.27;70.17;101566.33;102385;280;120215;-56
2023/05/20 06:03:02;;;;;;;9.00;4.40;;;;;;;21.12;68.80;101568.70;102373;279;104945;-57
2023/05/20 06:05:47;;;;;;;7.60;4.60;;;;;;;20.90;68.05;101573.93;102418;279;113711;-53
2023/05/20 06:08:31;;;;;;;8.70;3.90;;;;;;;20.74;67.79;101575.30;102451;280;94114;-56
2023/05/20 06:11:17;;;;;;;5.70;4.00;;;;;;;20.50;67.37;101575.48;102419;280;98451;-54
2023/05/20 06:13:56;;;;;;;6.40;3.70;;;;;;;20.23;67.56;101568.92;102389;280;119624;-56
2023/05/20 06:16:36;;;;;;;5.70;3.70;;;;;;;20.36;67.75;101569.24;102390;280;105706;-54
2023/05/20 06:19:13;;;;;;;4.80;4.00;;;;;;;20.59;67.30;101558.60;102354;280;113947;-53
2023/05/20 06:21:52;;;;;;;7.70;4.30;;;;;;;20.72;67.01;101561.63;102404;280;93423;-53
2023/05/20 06:24:42;;;;;;;6.80;3.90;;;;;;;20.84;66.80;101563.02;102389;280;97266;-54
2023/05/20 06:27:22;;;;;;;7.30;3.90;;;;;;;21.00;66.24;101556.23;102374;280;121643;-53
2023/05/20 06:29:57;;;;;;;6.40;3.80;;;;;;;21.18;65.89;101552.49;102344;280;104515;-54
2023/05/20 06:32:38;;;;;;;6.80;3.70;;;;;;;21.42;65.67;101550.60;102401;279;115142;-56
2023/05/20 06:35:24;;;;;;;6.90;3.70;;;;;;;21.61;64.74;101551.35;102352;280;94345;-56
2023/05/20 06:38:07;;;;;;;5.10;3.50;;;;;;;21.61;63.85;101551.39;102383;280;98429;-56
2023/05/20 06:40:53;;;;;;;7.50;3.40;;;;;;;21.66;64.14;101550.04;102339;272;120543;-57
2023/05/20 06:43:41;;;;;;;4.10;3.40;;;;;;;21.77;63.81;101545.82;102404;280;105856;-56
2023/05/20 06:46:28;;;;;;;5.20;4.20;;;;;;;21.84;63.50;101542.50;102404;280;114672;-56
2023/05/20 06:49:12;;;;;;;4.20;3.20;;;;;;;22.52;63.09;101541.27;102384;280;94557;-56
2023/05/20 06:51:59;;;;;;;7.20;3.80;;;;;;;22.81;62.06;101540.10;102455;280;97444;-57
2023/05/20 06:54:41;;;;;;;5.80;4.10;;;;;;;23.00;61.81;101537.75;102366;280;121016;-56
2023/05/20 06:57:21;;;;;;;7.90;4.10;;;;;;;23.29;61.49;101539.44;102382;280;104670;-54
2023/05/20 07:00:01;;;;;;;5.20;3.30;;;;;;;23.60;60.98;101539.91;102353;280;113847;-53
2023/05/20 07:02:44;;;;;;;5.50;3.70;;;;;;;23.94;60.50;101542.33;102390;280;93653;-57
2023/05/20 07:05:23;;;;;;;4.50;3.50;;;;;;;24.60;60.43;101538.61;102311;280;97476;-57
2023/05/20 07:08:01;;;;;;;6.30;3.60;;;;;;;25.37;58.54;101531.70;102324;281;121282;-54
2023/05/20 07:10:47;;;;;;;6.20;3.80;;;;;;;25.61;58.02;101524.92;102373;280;106119;-54
2023/05/20 07:13:28;;;;;;;7.30;3.90;;;;;;;26.53;57.48;101525.36;102320;280;114315;-57
2023/05/20 07:16:07;;;;;;;6.10;3.80;;;;;;;27.49;54.79;101518.13;102363;280;95881;-57
2023/05/20 07:18:41;;;;;;;5.50;3.40;;;;;;;28.49;54.58;101520.35;102385;280;98140;-57
2023/05/20 07:21:32;;;;;;;7.60;3.70;;;;;;;29.34;53.72;101515.73;102334;280;120885;-57
2023/05/20 07:24:11;;;;;;;6.00;3.40;;;;;;;29.70;53.40;101512.74;102332;280;103473;-57
2023/05/20 07:26:52;;;;;;;6.90;3.50;;;;;;;30.39;51.63;101512.91;102335;280;114154;-54
2023/05/20 07:29:30;;;;;;;6.70;3.70;;;;;;;29.92;50.78;101514.14;102351;280;93571;-54
2023/05/20 07:32:09;;;;;;;5.60;3.70;;;;;;;29.89;49.76;101511.27;102352;281;97149;-57
2023/05/20 07:34:43;;;;;;;5.60;3.50;;;;;;;30.54;49.48;101509.24;102416;281;119499;-57
2023/05/20 07:37:31;;;;;;;4.60;3.80;;;;;;;31.17;48.76;101509.39;102415;280;105165;-55
2023/05/20 07:40:10;;;;;;;4.30;3.20;;;;;;;30.74;48.51;101506.11;102406;280;114807;-55
2023/05/20 07:42:50;;;;;;;4.60;3.30;;;;;;;30.93;47.86;101498.54;102226;281;94385;-57
2023/05/20 07:45:38;;;;;;;4.50;3.40;;;;;;;31.29;47.03;101499.06;102387;279;96835;-57
2023/05/20 07:48:21;;;;;;;6.60;4.10;;;;;;;31.64;45.33;101496.73;102383;279;119960;-55
2023/05/20 07:51:01;;;;;;;6.10;3.70;;;;;;;31.96;44.40;101492.42;102406;280;104228;-54
2023/05/20 07:53:46;;;;;;;5.50;3.50;;;;;;;31.93;44.26;101492.64;102351;279;114032;-53
2023/05/20 07:56:27;;;;;;;7.80;4.00;;;;;;;31.92;43.97;101495.11;102417;279;95081;-55
2023/05/20 07:59:11;;;;;;;4.70;3.40;;;;;;;31.92;43.12;101491.60;102394;279;96573;-55
2023/05/20 08:01:52;;;;;;;4.20;3.40;;;;;;;31.92;42.85;101490.97;102387;279;121425;-57
2023/05/20 08:04:37;;;;;;;5.40;3.50;;;;;;;31.99;42.96;101487.67;102359;279;105002;-57
2023/05/20 08:07:15;;;;;;;6.50;4.00;;;;;;;32.00;41.74;101488.38;102400;279;113827;-54
2023/05/20 08:09:53;;;;;;;6.40;3.30;;;;;;;31.62;40.49;101490.11;102379;279;93644;-55
2023/05/20 08:12:27;;;;;;;6.10;3.50;;;;;;;31.42;41.38;101488.67;102414;279;98388;-54
2023/05/20 08:15:08;;;;;;;5.50;3.40;;;;;;;30.80;41.97;101489.69;102409;279;120267;-54
2023/05/20 08:17:42;;;;;;;6.00;3.70;;;;;;;30.94;42.06;101489.81;102420;279;104656;-55
2023/05/20 08:20:17;;;;;;;5.70;3.40;;;;;;;30.96;41.54;101484.21;102399;279;114413;-55
2023/05/20 08:23:04;;;;;;;7.90;3.90;;;;;;;30.56;41.31;101492.10;102424;279;93679;-57
2023/05/20 08:25:45;;;;;;;4.20;3.20;;;;;;;30.30;41.22;101491.41;102377;279;97110;-55
2023/05/20 08:28:24;;;;;;;5.70;3.60;;;;;;;30.56;41.76;101486.73;102302;280;120614;-57
2023/05/20 08:31:02;;;;;;;6.00;3.80;;;;;;;31.21;41.51;101484.22;102247;281;106963;-58
2023/05/20 08:33:42;;;;;;;7.90;3.80;;;;;;;31.43;41.40;101486.15;102309;279;114798;-57
2023/05/20 08:36:24;;;;;;;4.70;3.50;;;;;;;31.97;41.11;101487.08;102443;279;95093;-57
2023/05/20 08:39:01;;;;;;;4.90;3.70;;;;;;;32.26;40.64;101490.84;102362;279;96857;-54
2023/05/20 08:41:39;;;;;;;4.70;3.60;;;;;;;31.94;39.35;101487.74;102417;280;119502;-56
2023/05/20 08:44:24;;;;;;;5.60;3.40;;;;;;;31.66;38.76;101485.36;102386;280;105593;-57
2023/05/20 08:47:02;;;;;;;4.80;3.50;;;;;;;31.29;37.77;101483.88;102533;279;115176;-53
2023/05/20 08:49:48;;;;;;;6.40;3.20;;;;;;;30.91;38.53;101473.15;102497;279;94446;-54
2023/05/20 08:52:32;;;;;;;4.10;3.10;;;;;;;31.08;38.90;101473.50;102505;279;97285;-58
2023/05/20 08:55:15;;;;;;;7.10;3.10;;;;;;;31.44;38.11;101469.86;102453;279;119118;-60
2023/05/20 08:57:58;;;;;;;5.70;3.10;;;;;;;31.43;37.75;101465.52;102448;279;105055;-57
2023/05/20 09:00:34;;;;;;;7.40;3.00;;;;;;;31.10;38.26;101469.64;102429;279;114367;-55
2023/05/20 09:03:19;;;;;;;8.00;3.40;;;;;;;30.88;38.17;101467.06;102385;279;94971;-61
2023/05/20 09:06:11;;;;;;;5.50;3.40;;;;;;;30.62;38.99;101464.09;102507;279;98103;-61
2023/05/20 09:08:53;;;;;;;6.20;3.40;;;;;;;30.63;38.58;101465.84;102447;279;120283;-63
2023/05/20 09:11:32;;;;;;;6.90;3.40;;;;;;;30.08;38.95;101462.95;102467;279;103787;-61
2023/05/20 09:14:13;;;;;;;7.20;4.10;;;;;;;29.95;39.11;101466.76;102393;279;113427;-61
2023/05/20 09:16:59;;;;;;;5.50;3.40;;;;;;;29.93;39.57;101463.10;102428;279;93432;-60
2023/05/20 09:19:47;;;;;;;5.90;4.10;;;;;;;30.00;39.63;101462.52;102451;279;96494;-60
2023/05/20 09:22:53;;;;;;;6.00;3.10;;;;;;;29.97;40.12;101460.77;102460;279;119381;-61
2023/05/20 09:25:33;;;;;;;4.20;3.40;;;;;;;30.04;40.67;101458.24;102274;279;104690;-63
2023/05/20 09:28:17;;;;;;;6.20;3.40;;;;;;;29.58;40.06;101453.55;102487;279;112362;-62
2023/05/20 09:31:03;;;;;;;5.70;3.50;;;;;;;29.21;40.68;101455.45;102452;279;94424;-58
2023/05/20 09:33:52;;;;;;;5.10;3.30;;;;;;;28.97;40.58;101459.97;102501;268;96671;-59
2023/05/20 09:36:34;;;;;;;7.00;4.00;;;;;;;28.39;41.36;101465.77;102536;279;120599;-59
2023/05/20 09:39:21;;;;;;;5.10;3.80;;;;;;;28.08;41.80;101463.49;102518;279;104396;-59
2023/05/20 09:42:17;;;;;;;6.00;4.20;;;;;;;27.93;41.48;101456.69;102479;279;114047;-60
2023/05/20 09:45:03;;;;;;;6.40;4.00;;;;;;;27.70;42.34;101458.75;102539;279;94144;-59
2023/05/20 09:47:39;;;;;;;5.00;4.10;;;;;;;27.56;42.82;101456.97;102383;280;97998;-59
2023/05/20 09:50:16;;;;;;;6.40;4.30;;;;;;;27.36;42.86;101456.30;102364;280;120412;-59
2023/05/20 09:52:52;;;;;;;6.70;3.80;;;;;;;27.50;42.91;101454.52;102397;279;106009;-60
2023/05/20 09:55:33;;;;;;;6.30;4.30;;;;;;;27.44;42.88;101449.68;102177;279;117119;-57
2023/05/20 09:58:14;;;;;;;6.30;4.10;;;;;;;27.59;42.67;101447.86;102393;279;93947;-63
2023/05/20 10:00:52;;;;;;;6.50;3.80;;;;;;;27.54;42.18;101445.92;102407;268;97868;-54
2023/05/20 10:03:34;;;;;;;6.30;4.00;;;;;;;27.61;42.74;101442.42;102381;280;121150;-53
2023/05/20 10:06:53;;;;;;;6.10;4.00;;;;;;;27.58;43.00;101441.70;102367;280;105571;-55
2023/05/20 10:09:52;;;;;;;5.90;3.60;;;;;;;27.62;42.79;101440.14;102394;280;113872;-64
2023/05/20 10:12:39;;;;;;;4.80;4.30;;;;;;;27.58;42.84;101442.36;102385;280;92809;-61
2023/05/20 10:15:26;;;;;;;4.60;4.00;;;;;;;27.14;42.54;101442.42;102407;268;98244;-62
2023/05/20 10:18:23;;;;;;;8.60;4.20;;;;;;;26.83;42.78;101437.06;102423;280;121302;-62
2023/05/20 10:21:17;;;;;;;5.90;4.20;;;;;;;26.55;43.28;101439.52;102367;280;105469;-62
2023/05/20 10:24:08;;;;;;;5.40;4.30;;;;;;;26.47;43.30;101443.26;102345;280;115326;-63
2023/05/20 10:27:02;;;;;;;7.40;4.30;;;;;;;26.23;43.66;101435.63;102388;280;94041;-63
2023/05/20 10:29:59;;;;;;;6.00;4.50;;;;;;;26.28;43.89;101431.06;102408;280;97500;-62
2023/05/20 10:32:49;;;;;;;6.30;4.70;;;;;;;26.18;43.96;101435.77;102449;280;120629;-62
2023/05/20 10:35:37;;;;;;;5.30;4.20;;;;;;;26.17;44.21;101432.04;102398;280;104759;-63
2023/05/20 10:38:20;;;;;;;10.20;4.30;;;;;;;26.31;44.30;101426.20;102500;280;114388;-63
2023/05/20 10:41:11;;;;;;;5.30;4.30;;;;;;;26.44;44.37;101420.39;102423;280;93098;-62
2023/05/20 10:44:03;;;;;;;7.00;5.30;;;;;;;26.58;44.20;101419.52;102573;279;98000;-62
2023/05/20 10:47:04;;;;;;;5.20;4.50;;;;;;;26.47;43.70;101416.91;102576;279;120430;-63
2023/05/20 10:49:47;;;;;;;5.70;4.30;;;;;;;26.32;43.85;101410.64;102507;279;104886;-63
2023/05/20 10:52:29;;;;;;;5.90;4.60;;;;;;;26.47;44.00;101401.13;102489;279;113876;-61
2023/05/20 10:55:05;;;;;;;4.90;4.30;;;;;;;26.61;43.93;101392.54;102492;279;92903;-62
2023/05/20 10:57:46;;;;;;;6.30;4.40;;;;;;;26.74;43.62;101390.09;102555;279;96985;-62
2023/05/20 11:00:33;;;;;;;6.40;4.30;;;;;;;26.77;43.63;101390.73;102463;279;119839;-60
2023/05/20 11:03:16;;;;;;;5.60;4.40;;;;;;;26.90;44.11;101387.66;102482;279;106678;-62
2023/05/20 11:06:02;;;;;;;6.20;4.20;;;;;;;27.11;43.80;101392.15;102486;280;113878;-61
2023/05/20 11:08:51;;;;;;;9.70;4.70;;;;;;;26.90;43.10;101384.80;102460;280;92136;-62
2023/05/20 11:11:31;;;;;;;8.80;4.50;;;;;;;26.87;43.64;101384.50;102432;279;96909;-62
2023/05/20 11:14:28;;;;;;;5.00;4.60;;;;;;;26.99;43.37;101372.83;102399;279;120151;-62
2023/05/20 11:17:16;;;;;;;5.30;4.40;;;;;;;26.80;43.21;101375.48;102274;280;105292;-62
2023/05/20 11:19:52;;;;;;;5.40;4.50;;;;;;;26.59;43.30;101371.24;102334;279;113758;-54
2023/05/20 11:22:41;;;;;;;5.70;4.70;;;;;;;26.63;42.91;101370.47;102335;279;94316;-57
2023/05/20 11:25:21;;;;;;;5.70;4.40;;;;;;;26.52;43.12;101367.77;102407;280;97962;-57
2023/05/20 11:28:04;;;;;;;6.40;4.30;;;;;;;26.35;43.37;101366.88;102396;279;119908;-60
2023/05/20 11:30:43;;;;;;;7.20;5.30;;;;;;;26.14;43.66;101366.23;102387;279;104594;-58
2023/05/20 11:33:36;;;;;;;6.20;4.90;;;;;;;26.05;43.91;101369.90;102388;279;113761;-60
2023/05/20 11:36:15;;;;;;;6.00;4.90;;;;;;;26.05;43.81;101364.20;102450;279;94907;-54
2023/05/20 11:39:02;;;;;;;5.40;4.30;;;;;;;26.01;44.06;101359.70;102564;279;97142;-57
2023/05/20 11:41:44;;;;;;;5.60;4.50;;;;;;;26.18;44.06;101365.29;102552;279;120543;-56
2023/05/20 11:44:37;;;;;;;6.50;4.60;;;;;;;26.14;43.97;101369.35;102562;279;105732;-54
2023/05/20 11:47:26;;;;;;;6.60;4.40;;;;;;;26.03;43.57;101365.02;102563;279;114142;-54
2023/05/20 11:50:17;;;;;;;6.40;5.00;;;;;;;25.92;43.49;101373.91;102517;279;94805;-53
2023/05/20 11:53:08;;;;;;;5.40;4.60;;;;;;;25.77;43.84;101368.73;102592;279;96422;-57
2023/05/20 11:55:56;;;;;;;5.30;4.80;;;;;;;25.90;44.06;101364.88;102541;279;121447;-54
2023/05/20 11:58:34;;;;;;;5.60;4.30;;;;;;;25.98;44.06;101366.38;102512;279;104957;-55
2023/05/20 12:01:11;;;;;;;6.00;4.70;;;;;;;26.13;43.99;101366.41;102518;279;114979;-54
2023/05/20 12:03:51;;;;;;;7.30;5.10;;;;;;;26.24;44.02;101364.33;102369;279;95021;-57
2023/05/20 12:06:31;;;;;;;6.90;4.70;;;;;;;26.29;43.83;101358.38;102482;279;97376;-54
2023/05/20 12:09:12;;;;;;;6.00;5.40;;;;;;;26.34;44.10;101353.19;102346;279;120893;-54
2023/05/20 12:11:54;;;;;;;8.80;4.50;;;;;;;26.45;43.28;101350.40;102502;279;104269;-56
2023/05/20 12:14:35;;;;;;;6.10;4.90;;;;;;;26.40;43.28;101348.70;102475;279;114103;-56
2023/05/20 12:17:13;;;;;;;5.00;4.50;;;;;;;26.49;43.34;101351.08;102536;279;95508;-57
2023/05/20 12:20:00;;;;;;;7.50;4.90;;;;;;;26.44;42.98;101349.17;102485;279;98075;-56
2023/05/20 12:22:37;;;;;;;7.50;5.00;;;;;;;26.25;42.96;101351.03;102416;279;120651;-58
2023/05/20 12:25:18;;;;;;;5.40;4.90;;;;;;;26.21;43.10;101350.68;102420;299;104527;-55
2023/05/20 12:28:03;;;;;;;6.40;4.60;;;;;;;25.88;43.12;101354.94;102432;279;114193;-56
2023/05/20 12:30:44;;;;;;;7.80;4.60;;;;;;;25.60;43.18;101357.52;102428;280;93160;-57